Nearby METAR Reports

 

KOXC - Oxford/Waterbury, Connecticut, USA
Distance from station: SE 8mi, 12km
Updated: Tue, 01-Dec-2020 9:51am EST
Mostly cloudy
Mostly cloudy
 Wind from SSW
Wind: SSW 10 mph , 17 km/h, Gust: 18 mph , 30 km/h
Temperature: 54°F , 12°C
Dew Point: 48°F , 9°C
Humidity: 82%
Barometer: 29.53 inHg , 1000 hPa
Clouds: Mostly cloudy
Visibility: 10 miles , 16 km
Cloud details: Mostly cloudy 2000 ft
Mostly cloudy 6000 ft
2020/12/01 14:51 KOXC 011451Z 21009G16KT 10SM BKN020 BKN060 12/09 A2953 RMK AO2 SLP008 T01170089 53005
KDXR - Danbury, Connecticut, USA
Distance from station: SW 19mi, 30km
Updated: Tue, 01-Dec-2020 9:53am EST
Overcast
Overcast
 Wind from SW
Wind: SW 12 mph , 19 km/h, Gust: 20 mph , 31 km/h
Temperature: 54°F , 12°C
Dew Point: 43°F , 6°C
Humidity: 67%
Barometer: 29.52 inHg , 999.7 hPa
Clouds: Overcast
Visibility: 10 miles , 16 km
Cloud details: Partly cloudy 5500 ft
Partly cloudy 7000 ft
Overcast 8000 ft
2020/12/01 14:53 KDXR 011453Z 22010G17KT 10SM SCT055 SCT070 OVC080 12/06 A2952 RMK AO2 SLP996 T01170056 51006
 
KMMK - Meriden, Connecticut, USA
Distance from station: E 20mi, 33km
Updated: Tue, 01-Dec-2020 10:09am EST
Overcast
Overcast
 Wind from S
Wind: S 14 mph , 22 km/h, Gust: 21 mph , 33 km/h
Temperature: 57°F , 14°C
Dew Point: 46°F , 8°C
Humidity: 67%
Barometer: 29.52 inHg , 999.7 hPa
Clouds: Overcast
Visibility: 10 miles , 16 km
Cloud details: Few Clouds 2200 ft
Mostly cloudy 5000 ft
Overcast 8000 ft
2020/12/01 15:09 KMMK 011509Z AUTO 18012G18KT 10SM FEW022 BKN050 OVC080 14/08 A2952 RMK AO2 T01390078
KBDR - Bridgeport, Connecticut, USA
Distance from station: S 27mi, 44km
Updated: Tue, 01-Dec-2020 9:52am EST
Overcast
Overcast
 Wind from SW
Wind: SW 16 mph , 26 km/h
Temperature: 57°F , 14°C
Dew Point: 48°F , 9°C
Humidity: 72%
Barometer: 29.54 inHg , 1000.3 hPa
Clouds: Overcast
Visibility: 10 miles , 16 km
Cloud details: Partly cloudy 5500 ft
Overcast 8000 ft
2020/12/01 14:52 KBDR 011452Z 22014KT 10SM SCT055 OVC080 14/09 A2954 RMK AO2 SLP002 T01390094 51010
 
KHVN - New Haven/Tweed, Connecticut, USA
Distance from station: SE 27mi, 44km
Updated: Tue, 01-Dec-2020 9:53am EST
Mostly cloudy
Mostly cloudy
 Wind from SSW
Wind: SSW 8 mph , 13 km/h, Gust: 18 mph , 30 km/h
Temperature: 57°F , 14°C
Dew Point: 52°F , 11°C
Humidity: 82%
Barometer: 29.53 inHg , 1000 hPa
Clouds: Mostly cloudy
Visibility: 10 miles , 16 km
Cloud details: Few Clouds 5000 ft
Mostly cloudy 8000 ft
2020/12/01 14:53 KHVN 011453Z 21007G16KT 10SM FEW050 BKN080 14/11 A2953 RMK AO2 SLP999 T01390111 51005
KHFD - Hartford/Brainar, Connecticut, USA
Distance from station: ENE 32mi, 52km
Updated: Tue, 01-Dec-2020 10:35am EST
Mostly cloudy
Mostly cloudy
 Wind from SSW
Wind: SSW 6 mph , 9 km/h
Temperature: 59°F , 15°C
Dew Point: 48°F , 9°C
Humidity: 68%
Barometer: 29.50 inHg , 999 hPa
Clouds: Mostly cloudy
Visibility: 10 miles , 16 km
Cloud details: Mostly cloudy 2200 ft
Mostly cloudy 3200 ft
2020/12/01 15:35 KHFD 011535Z 20005KT 10SM BKN022 BKN032 15/09 A2950 RMK AO2 T01500094
 
KPOU - Poughkeepsie, New York, USA
Distance from station: W 35mi, 56km
Updated: Tue, 01-Dec-2020 9:53am EST
Partly cloudy
Partly cloudy
 Wind from S
Wind: S 8 mph , 13 km/h
Temperature: 55°F , 13°C
Dew Point: 43°F , 6°C
Humidity: 63%
Barometer: 29.49 inHg , 998.6 hPa
Clouds: Partly cloudy
Visibility: 10 miles , 16 km
Cloud details: Partly cloudy 7000 ft
2020/12/01 14:53 KPOU 011453Z 17007KT 140V220 10SM SCT070 13/06 A2949 RMK AO2 SLP983 60007 T01280061 50009
KBDL - Windsor Locks, Connecticut, USA
Distance from station: NE 38mi, 62km
Updated: Tue, 01-Dec-2020 9:51am EST
Mostly cloudy
Mostly cloudy
 Wind from S
Wind: S 10 mph , 17 km/h, Gust: 20 mph , 31 km/h
Temperature: 57°F , 14°C
Dew Point: 54°F , 12°C
Humidity: 88%
Barometer: 29.49 inHg , 998.6 hPa
Clouds: Mostly cloudy
Visibility: 10 miles , 16 km
Cloud details: Few Clouds 2400 ft
Partly cloudy 3500 ft
Mostly cloudy 6000 ft
2020/12/01 14:51 KBDL 011451Z 19009G17KT 10SM FEW024 SCT035 BKN060 14/12 A2949 RMK AO2 SLP987 T01440117 58000
 
KSNC - Chester, Connecticut, USA
Distance from station: ESE 39mi, 63km
Updated: Tue, 01-Dec-2020 10:35am EST
Mostly cloudy
Mostly cloudy
 Wind from varies
Wind: varies 6 mph , 9 km/h, Gust: 15 mph , 24 km/h
Temperature: 55°F , 13°C
Dew Point: 50°F , 10°C
Humidity: 82%
Barometer: 29.53 inHg , 1000 hPa
Clouds: Mostly cloudy
Visibility: 10 miles , 16 km
Cloud details: Few Clouds 1500 ft
Partly cloudy 4700 ft
Mostly cloudy 5500 ft
2020/12/01 15:35 KSNC 011535Z AUTO VRB05G13KT 10SM FEW015 SCT047 BKN055 13/10 A2953 RMK AO2
KHPN - White Plains, New York, USA
Distance from station: SW 42mi, 67km
Updated: Tue, 01-Dec-2020 9:56am EST
Mostly cloudy
Mostly cloudy
 Wind from varies
Wind: varies 7 mph , 11 km/h
Temperature: 52°F , 11°C
Dew Point: 43°F , 6°C
Humidity: 72%
Barometer: 29.53 inHg , 1000 hPa
Clouds: Mostly cloudy
Visibility: 10 miles , 16 km
Cloud details: Partly cloudy 1800 ft
Mostly cloudy 2800 ft
2020/12/01 14:56 KHPN 011456Z VRB06KT 10SM SCT018 BKN028 11/06 A2953 RMK AO2 SLP998 T01110061 51011
 
KSWF - Newburgh/Stewart, New York, USA
Distance from station: W 45mi, 72km
Updated: Tue, 01-Dec-2020 9:45am EST
Mostly cloudy
Mostly cloudy
 Wind from NNE
Wind: NNE 14 mph , 22 km/h, Gust: 21 mph , 33 km/h
Temperature: 54°F , 12°C
Dew Point: 45°F , 7°C
Humidity: 72%
Barometer: 29.50 inHg , 999 hPa
Clouds: Mostly cloudy
Visibility: 10 miles , 16 km
Cloud details: Few Clouds 2000 ft
Mostly cloudy 6000 ft
2020/12/01 14:45 KSWF 011445Z 022012G18KT 10SM FEW020 BKN060 12/07 A2950
KBAF - Westfield, Massachusetts, USA
Distance from station: NNE 50mi, 80km
Updated: Tue, 01-Dec-2020 10:40am EST
Mostly cloudy
Mostly cloudy
 Wind from S
Wind: S 15 mph , 24 km/h, Gust: 22 mph , 35 km/h
Temperature: 57°F , 14°C
Dew Point: 50°F , 10°C
Humidity: 77%
Barometer: 29.47 inHg , 998 hPa
Clouds: Mostly cloudy
Visibility: 10 miles , 16 km
Cloud details: Partly cloudy 2000 ft
Partly cloudy 6000 ft
Mostly cloudy 7000 ft
2020/12/01 15:40 KBAF 011540Z 19013G19KT 10SM SCT020 SCT060 BKN070 14/10 A2947 RMK AO2 T01440100